createdAt,value
2023-04-27T04:06:25.024Z,100765.78
2023-04-27T04:16:04.202Z,100782.69
2023-04-27T04:19:07.012Z,100794.22
2023-04-27T04:22:09.666Z,100813.84
2023-04-27T04:25:12.967Z,100826.59
2023-04-27T04:28:15.518Z,100837.28
2023-04-27T04:31:19.440Z,100851.34
2023-04-27T04:34:22.845Z,100850.25
2023-04-27T04:37:25.579Z,100851.66
2023-04-27T04:40:28.694Z,100864.53
2023-04-27T04:43:31.218Z,100861.94
2023-04-27T04:46:35.161Z,100868.28
2023-04-27T04:49:37.934Z,100873.28
2023-04-27T04:52:40.432Z,100866.09
2023-04-27T04:55:42.911Z,100871.28
2023-04-27T04:58:45.448Z,100874.81
2023-04-27T05:01:49.278Z,100878.84
2023-04-27T05:04:52.531Z,100881.78
2023-04-27T05:07:55.213Z,100886.31
2023-04-27T05:10:57.702Z,100880.97
2023-04-27T05:14:00.149Z,100886.44
2023-04-27T05:17:03.973Z,100887.78
2023-04-27T05:20:08.856Z,100896.25
2023-04-27T05:23:11.418Z,100883.09
2023-04-27T05:26:14.488Z,100891.06
2023-04-27T05:29:17.346Z,100902.53
2023-04-27T05:32:21.301Z,100902.38
2023-04-27T05:35:23.783Z,100906.47
2023-04-27T05:38:26.306Z,100893.84
2023-04-27T05:41:28.911Z,100898.88
2023-04-27T05:44:31.470Z,100890.41
2023-04-27T05:47:35.646Z,100897.34
2023-04-27T05:50:38.320Z,100894.56
2023-04-27T05:53:41.100Z,100896.41
2023-04-27T05:56:43.587Z,100899.22
2023-04-27T05:59:46.118Z,100895.34
2023-04-27T06:02:50.134Z,100894.13
2023-04-27T06:05:58.648Z,100898.09
2023-04-27T06:09:01.410Z,100892.44
2023-04-27T06:12:04.401Z,100894.69
2023-04-27T06:15:09.484Z,100904.06
2023-04-27T06:18:13.521Z,100899.16
2023-04-27T06:21:16.413Z,100895.03
2023-04-27T06:24:18.891Z,100905.97
2023-04-27T06:27:21.351Z,100907.88
2023-04-27T06:30:24.207Z,100904.84
2023-04-27T06:33:28.112Z,100915.00
2023-04-27T06:36:31.365Z,100907.34
2023-04-27T06:39:33.963Z,100911.94
2023-04-27T06:42:36.488Z,100904.69
2023-04-27T06:45:38.987Z,100910.81
2023-04-27T06:48:43.068Z,100926.16
2023-04-27T06:51:46.675Z,100918.59
2023-04-27T06:54:49.243Z,100919.34
2023-04-27T06:57:51.720Z,100917.06
2023-04-27T07:00:54.632Z,100922.91
2023-04-27T07:03:58.540Z,100928.13
2023-04-27T07:07:01.249Z,100914.91
2023-04-27T07:10:04.117Z,100918.13
2023-04-27T07:13:09.081Z,100920.13
2023-04-27T07:16:12.079Z,100918.34
2023-04-27T07:19:16.276Z,100921.31
2023-04-27T07:22:20.028Z,100920.19
2023-04-27T07:25:22.672Z,100919.25
2023-04-27T07:28:25.268Z,100920.66
2023-04-27T07:31:28.055Z,100923.84
2023-04-27T07:34:41.281Z,100919.53
2023-04-27T07:37:52.429Z,100927.97
2023-04-27T07:40:54.962Z,100927.38
2023-04-27T07:43:57.965Z,100933.72
2023-04-27T07:47:00.452Z,100934.91
2023-04-27T07:50:06.269Z,100930.63
2023-04-27T07:53:08.921Z,100924.81
2023-04-27T07:56:11.525Z,100930.34
2023-04-27T07:59:15.023Z,100936.25
2023-04-27T08:02:20.114Z,100946.78
2023-04-27T08:05:24.706Z,100937.63
2023-04-27T08:08:27.456Z,100949.28
2023-04-27T08:11:30.396Z,100948.56
2023-04-27T08:14:35.240Z,100938.22
2023-04-27T08:17:40.690Z,100947.75
2023-04-27T08:20:44.747Z,100945.66
2023-04-27T08:23:47.308Z,100949.03
2023-04-27T08:26:49.804Z,100944.38
2023-04-27T08:29:52.590Z,100953.19
2023-04-27T08:32:55.502Z,100946.31
2023-04-27T08:35:59.364Z,100949.56
2023-04-27T08:39:01.830Z,100949.38
2023-04-27T08:42:11.637Z,100944.56
2023-04-27T08:45:14.127Z,100957.56
2023-04-27T08:48:16.720Z,100964.53
2023-04-27T08:51:21.359Z,100952.47
2023-04-27T08:54:23.851Z,100956.00
2023-04-27T08:57:26.331Z,100949.63
2023-04-27T09:00:40.511Z,100953.47
2023-04-27T09:03:43.434Z,100951.28
2023-04-27T09:06:49.016Z,100949.28
2023-04-27T09:09:51.764Z,100951.38
2023-04-27T09:12:58.956Z,100948.56
2023-04-27T09:16:01.483Z,100955.56
2023-04-27T09:19:04.045Z,100954.19
2023-04-27T09:22:10.824Z,100958.66
2023-04-27T09:25:23.709Z,100967.50
2023-04-27T09:28:27.625Z,100963.53
2023-04-27T09:31:34.022Z,100960.34
2023-04-27T09:34:40.933Z,100955.72
2023-04-27T09:37:45.460Z,100941.63
2023-04-27T09:40:48.597Z,100944.78
2023-04-27T09:43:52.695Z,100952.81
2023-04-27T09:46:57.176Z,100953.34
2023-04-27T09:50:00.519Z,100941.88
2023-04-27T09:53:07.903Z,100939.50
2023-04-27T09:56:28.807Z,100949.25
2023-04-27T09:59:41.512Z,100941.72
2023-04-27T10:02:54.597Z,100942.69
2023-04-27T10:06:37.454Z,100940.94
2023-04-27T10:09:44.164Z,100933.38
2023-04-27T10:12:58.049Z,100935.28
2023-04-27T10:16:16.550Z,100934.53
2023-04-27T10:19:20.529Z,100926.91
2023-04-27T10:25:28.579Z,100926.28
2023-04-27T10:28:40.139Z,100920.53
2023-04-27T10:31:44.984Z,100917.81
2023-04-27T10:34:49.053Z,100918.94
2023-04-27T10:37:53.053Z,100919.03
2023-04-27T10:40:58.208Z,100919.63
2023-04-27T10:44:14.885Z,100930.72
2023-04-27T10:47:19.869Z,100930.16
2023-04-27T10:50:23.497Z,100928.50
2023-04-27T10:53:27.147Z,100940.22
2023-04-27T10:56:30.992Z,100936.78
2023-04-27T10:59:33.871Z,100944.41
2023-04-27T11:02:36.556Z,100942.53
2023-04-27T11:05:39.151Z,100924.13
2023-04-27T11:08:45.998Z,100927.63
2023-04-27T11:11:49.926Z,100920.69
2023-04-27T11:14:58.459Z,100924.03
2023-04-27T11:18:05.958Z,100934.53
2023-04-27T11:21:10.514Z,100924.88
2023-04-27T11:24:15.303Z,100932.88
2023-04-27T11:27:22.272Z,100934.91
2023-04-27T11:30:26.016Z,100939.25
2023-04-27T11:33:29.269Z,100933.31
2023-04-27T11:36:31.757Z,100943.50
2023-04-27T11:39:36.079Z,100938.44
2023-04-27T11:42:43.618Z,100938.31
2023-04-27T11:45:46.302Z,100934.94
2023-04-27T11:48:48.874Z,100943.47
2023-04-27T11:51:51.544Z,100954.75
2023-04-27T11:54:56.510Z,100949.94
2023-04-27T11:58:00.512Z,100952.72
2023-04-27T12:01:03.146Z,100940.06
2023-04-27T12:04:06.240Z,100950.91
2023-04-27T12:07:08.887Z,100940.06
2023-04-27T12:10:11.958Z,100947.50
2023-04-27T12:13:16.212Z,100958.25
2023-04-27T12:16:18.756Z,100952.09
2023-04-27T12:19:24.249Z,100964.91
2023-04-27T12:22:26.943Z,100969.22
2023-04-27T12:25:30.342Z,100963.41
2023-04-27T12:28:34.297Z,100959.09
2023-04-27T12:31:36.945Z,100950.53
2023-04-27T12:34:40.218Z,100960.81
2023-04-27T12:37:42.916Z,100951.91
2023-04-27T12:40:45.642Z,100968.28
2023-04-27T12:43:49.468Z,100954.09
2023-04-27T12:46:52.199Z,100951.28
2023-04-27T12:49:54.864Z,100945.38
2023-04-27T12:52:57.353Z,100959.53
2023-04-27T12:56:01.930Z,100963.69
2023-04-27T12:59:05.957Z,100967.91
2023-04-27T13:02:08.800Z,100961.16
2023-04-27T13:05:11.895Z,100956.50
2023-04-27T13:08:14.406Z,100952.41
2023-04-27T13:11:17.967Z,100966.31
2023-04-27T13:14:22.060Z,100972.66
2023-04-27T13:17:24.661Z,100970.34
2023-04-27T13:20:27.233Z,100953.28
2023-04-27T13:23:30.008Z,100958.19
2023-04-27T13:26:32.532Z,100952.28
2023-04-27T13:29:36.337Z,100948.91
2023-04-27T13:32:38.929Z,100952.91
2023-04-27T13:35:41.548Z,100949.63
2023-04-27T13:38:44.030Z,100948.41
2023-04-27T13:41:46.715Z,100953.41
2023-04-27T13:44:50.522Z,100953.06
2023-04-27T13:47:53.018Z,100956.50
2023-04-27T13:50:55.922Z,100957.94
2023-04-27T13:53:58.422Z,100958.50
2023-04-27T13:57:00.892Z,100961.56
2023-04-27T14:00:08.088Z,100961.78
2023-04-27T14:03:10.789Z,100956.84
2023-04-27T14:06:13.405Z,100953.84
2023-04-27T14:09:16.633Z,100957.81
2023-04-27T14:12:20.405Z,100951.63
2023-04-27T14:15:24.242Z,100950.94
2023-04-27T14:18:32.250Z,100953.47
2023-04-27T14:21:35.356Z,100958.22
2023-04-27T14:24:37.953Z,100957.66
2023-04-27T14:27:40.977Z,100958.28
2023-04-27T14:30:44.800Z,100960.19
2023-04-27T14:33:47.993Z,100957.63
2023-04-27T14:36:50.489Z,100961.84
2023-04-27T14:39:52.992Z,100963.44
2023-04-27T14:42:55.501Z,100964.81
2023-04-27T14:46:08.025Z,100962.72
2023-04-27T14:49:21.976Z,100962.44
2023-04-27T14:52:24.456Z,100957.03
2023-04-27T14:55:27.202Z,100962.09
2023-04-27T14:58:32.079Z,100961.50
2023-04-27T15:01:36.934Z,100962.03
2023-04-27T15:04:40.071Z,100970.81
2023-04-27T15:07:42.643Z,100956.09
2023-04-27T15:10:45.140Z,100955.19
2023-04-27T15:13:47.919Z,100959.69
2023-04-27T15:16:52.071Z,100951.19
2023-04-27T15:19:55.868Z,100946.28
2023-04-27T15:22:58.357Z,100959.44
2023-04-27T15:26:00.920Z,100961.44
2023-04-27T15:29:03.639Z,100953.75
2023-04-27T15:32:07.433Z,100957.88
2023-04-27T15:35:12.272Z,100962.34
2023-04-27T15:38:17.840Z,100962.72
2023-04-27T15:41:20.409Z,100948.78
2023-04-27T15:44:22.885Z,100959.38
2023-04-27T15:47:26.942Z,100951.56
2023-04-27T15:50:29.652Z,100946.84
2023-04-27T15:53:32.463Z,100945.19
2023-04-27T15:56:34.944Z,100947.84
2023-04-27T15:59:37.495Z,100942.47
2023-04-27T16:02:41.778Z,100941.34
2023-04-27T16:05:44.480Z,100940.16
2023-04-27T16:08:47.049Z,100947.91
2023-04-27T16:11:49.524Z,100937.75
2023-04-27T16:14:57.001Z,100938.06
2023-04-27T16:18:01.200Z,100927.13
2023-04-27T16:21:04.123Z,100921.91
2023-04-27T16:24:06.791Z,100923.59
2023-04-27T16:27:09.348Z,100922.53
2023-04-27T16:30:12.447Z,100929.28
2023-04-27T16:33:16.457Z,100917.06
2023-04-27T16:36:19.000Z,100923.81
2023-04-27T16:39:21.694Z,100914.31
2023-04-27T16:42:24.209Z,100914.34
2023-04-27T16:45:26.703Z,100929.31
2023-04-27T16:48:30.661Z,100918.56
2023-04-27T16:51:33.296Z,100921.34
2023-04-27T16:54:36.418Z,100920.78
2023-04-27T16:57:38.943Z,100921.66
2023-04-27T17:00:41.692Z,100923.53
2023-04-27T17:03:45.739Z,100924.06
2023-04-27T17:06:48.642Z,100926.25
2023-04-27T17:09:51.108Z,100925.94
2023-04-27T17:12:53.684Z,100929.13
2023-04-27T17:15:56.203Z,100922.66
2023-04-27T17:19:00.110Z,100922.66
2023-04-27T17:22:02.621Z,100917.28
2023-04-27T17:25:05.734Z,100916.75
2023-04-27T17:28:09.044Z,100919.47
2023-04-27T17:31:11.699Z,100928.25
2023-04-27T17:34:15.596Z,100930.38
2023-04-27T17:37:18.122Z,100931.06
2023-04-27T17:40:21.142Z,100925.50
2023-04-27T17:43:23.739Z,100935.75
2023-04-27T17:46:26.410Z,100919.94
2023-04-27T17:49:30.250Z,100919.88
2023-04-27T17:52:32.738Z,100921.13
2023-04-27T17:55:35.284Z,100929.78
2023-04-27T17:58:37.816Z,100933.34
2023-04-27T18:01:40.392Z,100932.53
2023-04-27T18:04:44.285Z,100932.50
2023-04-27T18:07:47.206Z,100940.03
2023-04-27T18:10:49.704Z,100935.50
2023-04-27T18:13:52.572Z,100944.97
2023-04-27T18:16:55.218Z,100942.03
2023-04-27T18:20:08.201Z,100938.25
2023-04-27T18:23:12.240Z,100937.19
2023-04-27T18:26:14.737Z,100938.00
2023-04-27T18:29:17.322Z,100944.06
2023-04-27T18:32:19.804Z,100951.78
2023-04-27T18:35:23.632Z,100956.22
2023-04-27T18:38:26.126Z,100950.69
2023-04-27T18:41:28.729Z,100952.97
2023-04-27T18:44:31.369Z,100955.16
2023-04-27T18:47:33.907Z,100963.31
2023-04-27T18:50:37.793Z,100960.25
2023-04-27T18:53:40.267Z,100968.56
2023-04-27T18:56:42.766Z,100979.50
2023-04-27T18:59:45.251Z,100977.84
2023-04-27T19:02:48.341Z,100985.47
2023-04-27T19:05:52.812Z,100982.63
2023-04-27T19:08:55.734Z,100988.69
2023-04-27T19:12:02.991Z,100986.16
2023-04-27T19:15:06.676Z,100990.09
2023-04-27T19:18:11.070Z,100987.22
2023-04-27T19:21:15.507Z,100987.06
2023-04-27T19:24:18.176Z,100984.75
2023-04-27T19:27:20.674Z,100978.81
2023-04-27T19:30:23.201Z,100976.28
2023-04-27T19:33:25.872Z,100974.66
2023-04-27T19:36:29.670Z,100968.44
2023-04-27T19:39:34.298Z,100973.59
2023-04-27T19:42:37.063Z,100975.34
2023-04-27T19:45:41.799Z,100974.38
2023-04-27T19:48:44.274Z,100979.25
